Time;durP1;ratioP1;P1;durP2;ratioP2;P2;SDS_P1;SDS_P2;PMS_P1;PMS_P2;Temp;Humidity;BMP_temperature;BMP_pressure;BME280_temperature;BME280_humidity;BME280_pressure;Samples;Min_cycle;Max_cycle;Signal;HPM_P1;HPM_P2
2021/09/29 00:02:03;;;;;;;2.50;1.50;;;;;;;;;;5072207;28;20416;-59
2021/09/29 00:04:28;;;;;;;2.50;1.80;;;;;;;;;;5071684;28;20103;-60
2021/09/29 00:06:53;;;;;;;2.97;2.00;;;;;;;;;;5071204;28;20029;-60
2021/09/29 00:09:19;;;;;;;4.20;2.13;;;;;;;;;;5070059;28;20040;-61
2021/09/29 00:11:44;;;;;;;2.58;1.90;;;;;;;;;;5071169;28;20495;-60
2021/09/29 00:14:10;;;;;;;2.90;2.15;;;;;;;;;;5071019;28;20062;-60
2021/09/29 00:16:35;;;;;;;3.03;2.13;;;;;;;;;;5064403;28;20090;-59
2021/09/29 00:19:01;;;;;;;2.00;1.42;;;;;;;;;;5069849;28;20705;-60
2021/09/29 00:21:26;;;;;;;3.13;1.88;;;;;;;;;;5068853;28;20055;-60
2021/09/29 00:23:52;;;;;;;6.90;2.35;;;;;;;;;;5066881;28;20115;-58
2021/09/29 00:26:17;;;;;;;3.33;2.30;;;;;;;;;;5069413;28;20111;-58
2021/09/29 00:28:42;;;;;;;2.72;1.65;;;;;;;;;;5067952;28;20040;-58
2021/09/29 00:31:23;;;;;;;3.25;2.15;;;;;;;;;;5067787;28;20058;-58
2021/09/29 00:33:50;;;;;;;2.35;1.80;;;;;;;;;;5068381;28;20017;-58
2021/09/29 00:36:16;;;;;;;3.67;2.15;;;;;;;;;;5068283;28;20478;-58
2021/09/29 00:38:42;;;;;;;3.05;2.22;;;;;;;;;;5067724;28;20036;-58
2021/09/29 00:41:07;;;;;;;3.38;2.55;;;;;;;;;;5066593;28;20172;-59
2021/09/29 00:43:33;;;;;;;2.78;2.13;;;;;;;;;;5063234;28;20036;-58
2021/09/29 00:45:58;;;;;;;5.97;3.17;;;;;;;;;;5070945;28;20028;-58
2021/09/29 00:48:24;;;;;;;2.22;1.70;;;;;;;;;;5071139;28;20033;-58
2021/09/29 00:50:49;;;;;;;4.47;2.75;;;;;;;;;;5070493;28;20032;-58
2021/09/29 00:53:17;;;;;;;2.50;1.70;;;;;;;;;;5070920;28;20044;-58
2021/09/29 00:55:43;;;;;;;4.63;2.00;;;;;;;;;;5069829;28;20568;-59
2021/09/29 00:58:08;;;;;;;2.40;1.85;;;;;;;;;;5070869;28;20111;-59
2021/09/29 01:00:33;;;;;;;3.10;2.40;;;;;;;;;;5070344;28;20036;-59
2021/09/29 01:03:00;;;;;;;2.92;2.15;;;;;;;;;;5070846;28;20454;-59
2021/09/29 01:05:25;;;;;;;2.13;1.60;;;;;;;;;;5070598;28;20032;-59
2021/09/29 01:08:07;;;;;;;2.22;1.73;;;;;;;;;;5068921;28;20032;-60
2021/09/29 01:10:56;;;;;;;4.22;2.50;;;;;;;;;;5070068;28;20068;-61
2021/09/29 01:13:56;;;;;;;2.33;1.70;;;;;;;;;;5070526;28;20024;-59
2021/09/29 01:16:21;;;;;;;3.65;2.03;;;;;;;;;;5070435;28;20064;-58
2021/09/29 01:18:58;;;;;;;2.75;2.10;;;;;;;;;;5065740;28;20055;-58
2021/09/29 01:21:28;;;;;;;2.47;1.75;;;;;;;;;;5070288;28;20054;-58
2021/09/29 01:24:21;;;;;;;3.60;2.40;;;;;;;;;;5069834;28;20115;-58
2021/09/29 01:26:48;;;;;;;3.38;2.40;;;;;;;;;;5069238;28;20033;-58
2021/09/29 01:29:17;;;;;;;2.92;2.20;;;;;;;;;;5069953;28;20477;-58
2021/09/29 01:31:43;;;;;;;4.03;2.90;;;;;;;;;;5069612;28;20043;-58
2021/09/29 01:34:10;;;;;;;4.75;2.45;;;;;;;;;;5069172;28;20024;-59
2021/09/29 01:36:37;;;;;;;5.00;2.33;;;;;;;;;;5070122;28;20074;-60
2021/09/29 01:39:07;;;;;;;2.85;2.03;;;;;;;;;;5069441;28;20056;-60
2021/09/29 01:41:33;;;;;;;3.30;2.08;;;;;;;;;;5070094;28;20056;-60
2021/09/29 01:44:00;;;;;;;3.53;2.17;;;;;;;;;;5069238;28;20025;-60
2021/09/29 01:46:27;;;;;;;2.33;1.55;;;;;;;;;;5069564;28;20028;-60
2021/09/29 01:49:15;;;;;;;2.83;2.15;;;;;;;;;;5069714;28;20619;-58
2021/09/29 01:51:46;;;;;;;2.88;2.20;;;;;;;;;;5068708;28;20531;-58
2021/09/29 01:54:15;;;;;;;2.70;2.33;;;;;;;;;;5069150;28;20028;-59
2021/09/29 01:56:41;;;;;;;3.25;2.13;;;;;;;;;;5069811;28;20059;-60
2021/09/29 01:59:07;;;;;;;2.45;1.77;;;;;;;;;;5069233;28;20111;-61
2021/09/29 02:01:37;;;;;;;4.43;2.03;;;;;;;;;;5067836;28;20532;-60
2021/09/29 02:04:04;;;;;;;2.95;2.33;;;;;;;;;;5067768;28;20028;-59
2021/09/29 02:06:29;;;;;;;2.85;2.35;;;;;;;;;;5076493;28;20198;-59
2021/09/29 02:08:55;;;;;;;3.35;2.45;;;;;;;;;;5062521;28;20143;-59
2021/09/29 02:11:20;;;;;;;3.35;2.35;;;;;;;;;;5066343;28;20032;-58
2021/09/29 02:13:46;;;;;;;3.28;2.47;;;;;;;;;;5066496;28;20047;-58
2021/09/29 02:16:11;;;;;;;2.47;1.83;;;;;;;;;;5063875;28;20028;-58
2021/09/29 02:18:37;;;;;;;3.25;2.30;;;;;;;;;;5066659;28;20109;-58
2021/09/29 02:21:02;;;;;;;2.55;2.03;;;;;;;;;;5065579;28;20025;-58
2021/09/29 02:23:28;;;;;;;3.83;2.40;;;;;;;;;;5069195;28;20020;-61
2021/09/29 02:25:53;;;;;;;2.50;1.85;;;;;;;;;;5060346;28;20032;-57
2021/09/29 02:28:19;;;;;;;3.30;2.30;;;;;;;;;;5066186;28;20457;-58
2021/09/29 02:30:44;;;;;;;2.47;1.88;;;;;;;;;;5064553;28;20037;-58
2021/09/29 02:33:10;;;;;;;2.33;1.80;;;;;;;;;;5066112;28;20020;-58
2021/09/29 02:35:35;;;;;;;3.28;2.03;;;;;;;;;;5067147;28;20028;-58
2021/09/29 02:38:01;;;;;;;2.40;1.90;;;;;;;;;;5062393;28;20043;-58
2021/09/29 02:40:26;;;;;;;2.58;1.83;;;;;;;;;;5065266;28;20128;-59
2021/09/29 02:42:52;;;;;;;4.82;2.25;;;;;;;;;;5059487;28;20035;-59
2021/09/29 02:45:17;;;;;;;2.97;2.20;;;;;;;;;;5063860;28;20096;-59
2021/09/29 02:47:42;;;;;;;3.13;2.10;;;;;;;;;;5065977;28;20036;-60
2021/09/29 02:50:09;;;;;;;2.55;1.85;;;;;;;;;;5065600;28;20409;-60
2021/09/29 02:52:35;;;;;;;2.40;1.83;;;;;;;;;;5066831;28;20035;-60
2021/09/29 02:55:00;;;;;;;2.10;1.52;;;;;;;;;;5065427;28;20455;-60
2021/09/29 02:57:26;;;;;;;2.00;1.52;;;;;;;;;;5066703;28;20038;-59
2021/09/29 02:59:51;;;;;;;3.03;2.00;;;;;;;;;;5066349;28;20056;-61
2021/09/29 03:02:16;;;;;;;2.95;2.00;;;;;;;;;;5063144;28;20135;-59
2021/09/29 03:04:42;;;;;;;2.35;1.90;;;;;;;;;;5066784;28;20028;-59
2021/09/29 03:07:07;;;;;;;2.60;2.08;;;;;;;;;;5065786;28;20033;-59
2021/09/29 03:09:34;;;;;;;2.28;1.60;;;;;;;;;;5064932;28;20096;-59
2021/09/29 03:11:59;;;;;;;2.35;1.83;;;;;;;;;;5066112;28;20083;-58
2021/09/29 03:14:24;;;;;;;2.78;1.92;;;;;;;;;;5064694;28;20466;-58
2021/09/29 03:16:50;;;;;;;2.63;1.83;;;;;;;;;;5066644;28;20036;-59
2021/09/29 03:19:15;;;;;;;3.25;2.10;;;;;;;;;;5066373;28;20118;-59
2021/09/29 03:21:41;;;;;;;2.22;1.73;;;;;;;;;;5063374;28;20115;-59
2021/09/29 03:24:06;;;;;;;2.38;1.60;;;;;;;;;;5068436;28;20052;-59
2021/09/29 03:26:31;;;;;;;3.55;2.03;;;;;;;;;;5068478;28;20381;-59
2021/09/29 03:28:57;;;;;;;2.80;2.10;;;;;;;;;;5068631;28;20099;-59
2021/09/29 03:31:22;;;;;;;3.03;2.40;;;;;;;;;;5068705;28;20439;-59
2021/09/29 03:33:48;;;;;;;3.10;2.20;;;;;;;;;;5068802;28;20020;-59
2021/09/29 03:36:13;;;;;;;2.88;2.13;;;;;;;;;;5068472;28;20025;-59
2021/09/29 03:38:39;;;;;;;2.80;2.00;;;;;;;;;;5059687;28;20028;-59
2021/09/29 03:41:04;;;;;;;2.50;1.85;;;;;;;;;;5068465;28;20396;-59
2021/09/29 03:43:29;;;;;;;2.45;1.88;;;;;;;;;;5071462;28;20148;-59
2021/09/29 03:45:55;;;;;;;2.50;1.95;;;;;;;;;;5069964;28;20032;-59
2021/09/29 03:48:20;;;;;;;3.53;2.30;;;;;;;;;;5072121;28;20476;-59
2021/09/29 03:50:46;;;;;;;2.92;1.80;;;;;;;;;;5071786;28;20033;-60
2021/09/29 03:53:11;;;;;;;2.70;2.05;;;;;;;;;;5071992;28;20458;-60
2021/09/29 03:55:36;;;;;;;3.10;2.15;;;;;;;;;;5072048;28;20037;-59
2021/09/29 03:58:02;;;;;;;2.35;1.75;;;;;;;;;;5072022;28;20343;-59
2021/09/29 04:00:28;;;;;;;7.30;3.10;;;;;;;;;;5072272;28;20029;-59
2021/09/29 04:02:53;;;;;;;2.67;2.00;;;;;;;;;;5071275;28;20470;-59
2021/09/29 04:05:19;;;;;;;2.72;2.22;;;;;;;;;;5072210;28;20369;-59
2021/09/29 04:07:44;;;;;;;2.42;2.03;;;;;;;;;;5071928;28;20024;-59
2021/09/29 04:10:10;;;;;;;2.10;1.63;;;;;;;;;;5070484;28;20545;-59
2021/09/29 04:12:36;;;;;;;2.20;1.73;;;;;;;;;;5071416;28;20163;-59
2021/09/29 04:15:02;;;;;;;2.25;1.63;;;;;;;;;;5071784;28;20123;-59
2021/09/29 04:17:27;;;;;;;3.25;2.38;;;;;;;;;;5069336;28;20406;-59
2021/09/29 04:19:53;;;;;;;2.60;2.15;;;;;;;;;;5068679;28;20037;-58
2021/09/29 04:22:20;;;;;;;2.72;1.98;;;;;;;;;;5072046;28;20013;-61
2021/09/29 04:24:46;;;;;;;2.70;2.03;;;;;;;;;;5070770;28;20056;-59
2021/09/29 04:27:13;;;;;;;3.53;2.25;;;;;;;;;;5071265;28;20371;-60
2021/09/29 04:29:39;;;;;;;2.53;1.85;;;;;;;;;;5071769;28;20540;-59
2021/09/29 04:32:09;;;;;;;3.00;2.03;;;;;;;;;;5071261;28;20048;-59
2021/09/29 04:34:34;;;;;;;2.78;1.83;;;;;;;;;;5069524;28;20052;-59
2021/09/29 04:37:00;;;;;;;2.80;2.00;;;;;;;;;;5070025;28;20856;-59
2021/09/29 04:39:25;;;;;;;5.35;2.47;;;;;;;;;;5068451;28;20029;-59
2021/09/29 04:41:51;;;;;;;3.17;2.15;;;;;;;;;;5070087;28;20047;-59
2021/09/29 04:44:16;;;;;;;2.85;2.22;;;;;;;;;;5070465;28;20102;-58
2021/09/29 04:46:42;;;;;;;2.78;2.10;;;;;;;;;;5071261;28;20040;-59
2021/09/29 04:49:07;;;;;;;3.38;2.53;;;;;;;;;;5070924;28;20241;-59
2021/09/29 04:51:33;;;;;;;3.13;2.25;;;;;;;;;;5071508;28;20068;-59
2021/09/29 04:54:00;;;;;;;5.40;2.38;;;;;;;;;;5069820;28;20509;-59
2021/09/29 04:56:25;;;;;;;3.08;2.10;;;;;;;;;;5070752;28;20047;-59
2021/09/29 04:58:51;;;;;;;2.30;1.70;;;;;;;;;;5070674;28;20032;-60
2021/09/29 05:01:19;;;;;;;8.93;2.53;;;;;;;;;;5070031;28;20441;-59
2021/09/29 05:03:44;;;;;;;3.63;2.28;;;;;;;;;;5070760;28;20039;-59
2021/09/29 05:06:10;;;;;;;3.70;2.97;;;;;;;;;;5070809;28;20366;-59
2021/09/29 05:08:35;;;;;;;2.63;2.22;;;;;;;;;;5068973;28;20434;-60
2021/09/29 05:11:24;;;;;;;3.00;2.22;;;;;;;;;;5066295;28;21192;-60
2021/09/29 05:13:49;;;;;;;3.22;2.10;;;;;;;;;;5067401;28;20123;-60
2021/09/29 05:16:15;;;;;;;3.28;2.63;;;;;;;;;;5062361;28;20518;-60
2021/09/29 05:18:40;;;;;;;2.15;1.70;;;;;;;;;;5066269;28;20036;-60
2021/09/29 05:21:06;;;;;;;3.35;2.38;;;;;;;;;;5067977;28;20077;-59
2021/09/29 05:23:32;;;;;;;19.38;2.88;;;;;;;;;;5070376;28;20398;-59
2021/09/29 05:25:58;;;;;;;3.25;2.58;;;;;;;;;;5069392;28;20646;-59
2021/09/29 05:28:32;;;;;;;2.60;2.13;;;;;;;;;;5063926;28;20474;-60
2021/09/29 05:30:58;;;;;;;2.50;1.77;;;;;;;;;;5064595;28;20570;-60
2021/09/29 05:33:24;;;;;;;3.20;2.55;;;;;;;;;;5059713;28;20119;-60
2021/09/29 05:35:49;;;;;;;3.03;2.08;;;;;;;;;;5061004;28;20028;-60
2021/09/29 05:38:15;;;;;;;2.95;1.80;;;;;;;;;;5066091;28;20210;-60
2021/09/29 05:40:40;;;;;;;3.13;2.33;;;;;;;;;;5067129;28;20739;-60
2021/09/29 05:43:06;;;;;;;4.00;2.70;;;;;;;;;;5069724;28;20527;-60
2021/09/29 05:45:31;;;;;;;3.35;2.35;;;;;;;;;;5065950;28;20052;-60
2021/09/29 05:47:57;;;;;;;3.50;2.28;;;;;;;;;;5068192;28;20123;-60
2021/09/29 05:50:22;;;;;;;4.47;2.50;;;;;;;;;;5066971;28;20665;-60
2021/09/29 05:52:47;;;;;;;3.15;2.72;;;;;;;;;;5068480;28;20111;-60
2021/09/29 05:55:13;;;;;;;4.38;2.85;;;;;;;;;;5069239;28;20039;-60
2021/09/29 05:57:39;;;;;;;3.97;2.97;;;;;;;;;;5068894;28;20112;-59
2021/09/29 06:00:06;;;;;;;3.75;2.10;;;;;;;;;;5068819;28;20036;-59
2021/09/29 06:02:31;;;;;;;4.35;3.47;;;;;;;;;;5064267;28;20036;-60
2021/09/29 06:04:57;;;;;;;3.35;2.13;;;;;;;;;;5067736;28;20021;-60
2021/09/29 06:07:22;;;;;;;3.00;2.22;;;;;;;;;;5064697;28;20025;-59
2021/09/29 06:09:48;;;;;;;3.22;2.60;;;;;;;;;;5066723;28;20476;-60
2021/09/29 06:12:13;;;;;;;3.00;2.42;;;;;;;;;;5067819;28;20017;-59
2021/09/29 06:14:41;;;;;;;2.85;2.17;;;;;;;;;;5068428;28;20115;-59
2021/09/29 06:17:42;;;;;;;5.35;3.75;;;;;;;;;;5063300;28;20044;-59
2021/09/29 06:19:59;;;;;;;3.75;2.83;;;;;;;;;;5064750;28;20042;-59
2021/09/29 06:22:24;;;;;;;2.53;1.88;;;;;;;;;;5068835;28;20028;-59
2021/09/29 06:24:50;;;;;;;2.88;2.05;;;;;;;;;;5069124;28;20440;-59
2021/09/29 06:27:15;;;;;;;2.92;2.50;;;;;;;;;;5066763;28;20046;-59
2021/09/29 06:29:42;;;;;;;2.58;1.80;;;;;;;;;;5064680;28;21192;-59
2021/09/29 06:32:08;;;;;;;3.55;2.60;;;;;;;;;;5067102;28;20054;-59
2021/09/29 06:34:34;;;;;;;3.47;2.63;;;;;;;;;;5060110;28;20462;-60
2021/09/29 06:36:59;;;;;;;2.92;2.33;;;;;;;;;;5066767;28;20127;-59
2021/09/29 06:39:25;;;;;;;3.47;2.60;;;;;;;;;;5068179;28;20062;-59
2021/09/29 06:41:50;;;;;;;4.05;2.97;;;;;;;;;;5065051;28;20396;-60
2021/09/29 06:44:16;;;;;;;3.25;2.55;;;;;;;;;;5067049;28;20024;-60
2021/09/29 06:46:41;;;;;;;3.15;2.35;;;;;;;;;;5065570;28;20482;-59
2021/09/29 06:49:08;;;;;;;6.00;2.40;;;;;;;;;;5063626;28;20043;-59
2021/09/29 06:51:33;;;;;;;3.58;2.75;;;;;;;;;;5067825;28;20124;-60
2021/09/29 06:53:59;;;;;;;3.25;2.47;;;;;;;;;;5066834;28;20040;-60
2021/09/29 06:56:25;;;;;;;3.15;2.47;;;;;;;;;;5067594;28;20089;-60
2021/09/29 06:58:53;;;;;;;3.55;2.63;;;;;;;;;;5067620;28;20070;-60
2021/09/29 07:01:22;;;;;;;3.63;3.13;;;;;;;;;;5057563;28;20036;-60
2021/09/29 07:03:48;;;;;;;5.35;2.22;;;;;;;;;;5067542;28;20028;-60
2021/09/29 07:06:13;;;;;;;3.45;2.45;;;;;;;;;;5067589;28;20104;-60
2021/09/29 07:08:39;;;;;;;3.63;3.17;;;;;;;;;;5067109;28;20108;-60
2021/09/29 07:11:05;;;;;;;2.90;2.28;;;;;;;;;;5068485;28;20032;-59
2021/09/29 07:13:31;;;;;;;3.53;2.22;;;;;;;;;;5067314;28;20107;-59
2021/09/29 07:15:56;;;;;;;4.90;2.92;;;;;;;;;;5068141;28;20037;-60
2021/09/29 07:18:27;;;;;;;3.15;2.47;;;;;;;;;;5070582;28;20028;-60
2021/09/29 07:20:53;;;;;;;4.07;2.90;;;;;;;;;;5071217;28;20343;-60
2021/09/29 07:23:18;;;;;;;3.60;2.90;;;;;;;;;;5068831;28;20039;-60
2021/09/29 07:25:43;;;;;;;4.80;2.50;;;;;;;;;;5065590;28;20039;-60
2021/09/29 07:28:09;;;;;;;2.67;2.08;;;;;;;;;;5065573;28;20029;-61
2021/09/29 07:30:35;;;;;;;4.78;2.88;;;;;;;;;;5062878;28;20362;-61
2021/09/29 07:33:03;;;;;;;3.20;2.45;;;;;;;;;;5066783;28;20044;-59
2021/09/29 07:35:32;;;;;;;3.38;1.95;;;;;;;;;;5068931;28;20036;-60
2021/09/29 07:37:59;;;;;;;2.33;1.75;;;;;;;;;;5060983;28;20409;-60
2021/09/29 07:40:24;;;;;;;2.60;1.98;;;;;;;;;;5068797;28;20456;-60
2021/09/29 07:42:50;;;;;;;2.45;1.70;;;;;;;;;;5068014;28;20032;-60
2021/09/29 07:45:15;;;;;;;2.20;1.70;;;;;;;;;;5065105;28;20040;-60
2021/09/29 07:47:41;;;;;;;2.85;1.95;;;;;;;;;;5068291;28;20033;-60
2021/09/29 07:50:07;;;;;;;4.05;2.22;;;;;;;;;;5066650;28;20060;-59
2021/09/29 07:52:33;;;;;;;3.17;2.03;;;;;;;;;;5068511;28;20091;-59
2021/09/29 07:54:59;;;;;;;2.65;2.20;;;;;;;;;;5067923;28;20043;-60
2021/09/29 07:57:24;;;;;;;3.25;2.35;;;;;;;;;;5069383;28;20025;-59
2021/09/29 07:59:50;;;;;;;2.88;2.28;;;;;;;;;;5065876;28;20553;-59
2021/09/29 08:02:15;;;;;;;2.78;2.15;;;;;;;;;;5067617;28;20422;-59
2021/09/29 08:04:40;;;;;;;2.70;2.13;;;;;;;;;;5069186;28;20121;-59
2021/09/29 08:07:08;;;;;;;3.47;2.25;;;;;;;;;;5067005;28;20173;-59
2021/09/29 08:09:33;;;;;;;2.55;1.92;;;;;;;;;;5064333;28;20043;-59
2021/09/29 08:11:59;;;;;;;2.50;1.90;;;;;;;;;;5064317;28;20017;-59
2021/09/29 08:14:24;;;;;;;11.18;2.78;;;;;;;;;;5063931;28;20401;-59
2021/09/29 08:16:50;;;;;;;3.20;2.20;;;;;;;;;;5065657;28;20024;-59
2021/09/29 08:19:15;;;;;;;4.20;2.30;;;;;;;;;;5064787;28;20028;-59
2021/09/29 08:21:47;;;;;;;3.90;2.42;;;;;;;;;;5067138;28;20099;-59
2021/09/29 08:24:17;;;;;;;2.97;1.77;;;;;;;;;;5069946;28;20032;-59
2021/09/29 08:27:00;;;;;;;2.88;2.17;;;;;;;;;;5069714;28;20107;-60
2021/09/29 08:29:43;;;;;;;2.30;1.70;;;;;;;;;;5068360;28;20032;-60
2021/09/29 08:32:15;;;;;;;2.67;2.17;;;;;;;;;;5064421;28;20116;-59
2021/09/29 08:39:47;;;;;;;2.33;1.88;;;;;;;;;;5066872;28;20036;-60
2021/09/29 08:45:05;;;;;;;4.90;2.75;;;;;;;;;;5067916;28;20028;-60
2021/09/29 08:55:39;;;;;;;3.33;2.33;;;;;;;;;;5028481;28;20225;-60
2021/09/29 09:17:44;;;;;;;3.55;2.10;;;;;;;;;;5066558;28;20067;-59
2021/09/29 09:20:21;;;;;;;2.08;1.42;;;;;;;;;;5068945;28;20064;-59
2021/09/29 09:22:52;;;;;;;2.40;1.80;;;;;;;;;;5069069;28;20063;-59
2021/09/29 09:25:36;;;;;;;6.68;2.00;;;;;;;;;;5065901;28;20040;-59
2021/09/29 09:28:02;;;;;;;1.75;1.30;;;;;;;;;;5063980;28;20032;-60
2021/09/29 09:30:33;;;;;;;2.05;1.55;;;;;;;;;;5069561;28;20043;-59
2021/09/29 09:32:59;;;;;;;2.22;1.60;;;;;;;;;;5068406;28;20037;-59
2021/09/29 09:35:30;;;;;;;2.10;1.52;;;;;;;;;;5066183;28;20351;-59
2021/09/29 09:37:57;;;;;;;;;;;;;;;;;;5063904;28;20481;-58
2021/09/29 09:40:28;;;;;;;1.90;1.35;;;;;;;;;;5064231;28;19955;-59
2021/09/29 09:42:58;;;;;;;6.43;2.40;;;;;;;;;;5063818;28;20063;-59
2021/09/29 09:45:53;;;;;;;3.35;1.58;;;;;;;;;;5067648;28;20028;-59
2021/09/29 09:48:23;;;;;;;2.15;1.60;;;;;;;;;;5048321;28;20044;-58
2021/09/29 09:51:04;;;;;;;1.77;1.20;;;;;;;;;;5065785;28;20040;-59
2021/09/29 09:53:29;;;;;;;4.75;1.90;;;;;;;;;;5063552;28;20032;-59
2021/09/29 09:55:55;;;;;;;2.28;1.70;;;;;;;;;;5063504;28;20087;-59
2021/09/29 09:58:21;;;;;;;1.90;1.42;;;;;;;;;;5068691;28;20033;-59
2021/09/29 10:00:46;;;;;;;2.53;1.70;;;;;;;;;;5065324;28;20024;-59
2021/09/29 10:03:12;;;;;;;3.45;1.90;;;;;;;;;;5060015;28;20029;-59
2021/09/29 10:05:41;;;;;;;4.82;1.95;;;;;;;;;;5060618;28;20028;-59
2021/09/29 10:08:09;;;;;;;2.15;1.58;;;;;;;;;;5067315;28;20115;-59
2021/09/29 10:27:19;;;;;;;2.10;1.42;;;;;;;;;;5067809;28;20051;-59
2021/09/29 10:29:51;;;;;;;2.00;1.40;;;;;;;;;;5068459;28;20032;-59
2021/09/29 10:32:31;;;;;;;3.58;2.35;;;;;;;;;;5068163;28;20575;-58
2021/09/29 10:49:32;;;;;;;2.00;1.58;;;;;;;;;;5065235;28;20062;-59
2021/09/29 11:30:31;;;;;;;2.20;1.55;;;;;;;;;;5069979;28;20048;-60
2021/09/29 11:33:09;;;;;;;2.00;1.58;;;;;;;;;;5068127;28;20086;-60
2021/09/29 12:10:29;;;;;;;2.17;1.58;;;;;;;;;;5066741;28;20822;-60
2021/09/29 12:12:55;;;;;;;2.10;1.40;;;;;;;;;;5067501;28;21747;-61
2021/09/29 12:15:22;;;;;;;2.17;1.50;;;;;;;;;;5068678;28;20059;-61
2021/09/29 12:17:51;;;;;;;2.03;1.45;;;;;;;;;;5066650;28;20028;-61
2021/09/29 12:22:50;;;;;;;1.98;1.40;;;;;;;;;;5070583;28;20028;-60
2021/09/29 12:25:24;;;;;;;2.13;1.50;;;;;;;;;;5069036;28;20033;-61
2021/09/29 12:28:00;;;;;;;2.38;1.70;;;;;;;;;;5070634;28;20044;-63
2021/09/29 12:35:44;;;;;;;2.10;1.38;;;;;;;;;;5070143;28;20422;-63
2021/09/29 12:38:11;;;;;;;2.20;1.50;;;;;;;;;;5065252;28;20032;-65
2021/09/29 12:40:40;;;;;;;5.00;1.77;;;;;;;;;;5065059;28;20024;-66
2021/09/29 12:43:10;;;;;;;2.40;1.60;;;;;;;;;;5066133;28;20086;-66
2021/09/29 12:45:38;;;;;;;2.97;1.60;;;;;;;;;;5061092;28;20750;-66
2021/09/29 12:48:06;;;;;;;2.20;1.60;;;;;;;;;;5069401;28;20337;-64
2021/09/29 12:50:39;;;;;;;4.28;1.60;;;;;;;;;;5069431;28;20024;-64
2021/09/29 12:55:45;;;;;;;2.28;1.70;;;;;;;;;;5069816;28;20032;-63
2021/09/29 12:58:12;;;;;;;2.40;1.80;;;;;;;;;;5070007;28;20901;-63
2021/09/29 13:00:37;;;;;;;2.05;1.45;;;;;;;;;;5070295;28;20032;-63
2021/09/29 13:03:05;;;;;;;2.30;1.80;;;;;;;;;;5070043;28;20659;-63
2021/09/29 13:05:31;;;;;;;2.20;1.63;;;;;;;;;;5070596;28;20055;-62
2021/09/29 13:07:56;;;;;;;2.72;1.63;;;;;;;;;;5052817;28;20449;-63
2021/09/29 13:10:22;;;;;;;2.08;1.60;;;;;;;;;;5069530;28;20075;-62
2021/09/29 13:12:51;;;;;;;2.45;1.98;;;;;;;;;;5070104;28;20029;-63
2021/09/29 13:15:18;;;;;;;2.28;1.60;;;;;;;;;;5070729;28;20056;-62
2021/09/29 13:17:45;;;;;;;2.10;1.58;;;;;;;;;;5070430;28;20106;-62
2021/09/29 13:20:16;;;;;;;2.10;1.63;;;;;;;;;;5067504;28;20123;-63
2021/09/29 13:22:42;;;;;;;1.85;1.38;;;;;;;;;;5064987;28;20028;-62
2021/09/29 13:39:06;;;;;;;1.52;1.20;;;;;;;;;;5068415;28;20449;-61
2021/09/29 13:41:32;;;;;;;1.50;1.10;;;;;;;;;;5069651;28;20025;-60
2021/09/29 13:43:57;;;;;;;1.63;1.20;;;;;;;;;;5070595;28;20077;-61
2021/09/29 13:46:23;;;;;;;2.15;1.73;;;;;;;;;;5069874;28;20037;-61
2021/09/29 13:48:51;;;;;;;1.58;1.17;;;;;;;;;;5069330;28;20036;-60
2021/09/29 13:51:16;;;;;;;1.60;1.10;;;;;;;;;;5068472;28;20028;-61
2021/09/29 13:53:42;;;;;;;1.95;1.58;;;;;;;;;;5070076;28;20024;-61
2021/09/29 13:56:09;;;;;;;2.17;1.50;;;;;;;;;;5060995;28;20480;-61
2021/09/29 13:58:52;;;;;;;1.77;1.30;;;;;;;;;;5069566;28;20640;-61
2021/09/29 14:28:32;;;;;;;2.00;1.50;;;;;;;;;;5068930;28;20123;-62
2021/09/29 14:28:35;;;;;;;1.65;1.15;;;;;;;;;;5069189;28;20032;-62
2021/09/29 14:28:51;;;;;;;1.80;1.30;;;;;;;;;;5066576;28;20032;-62
2021/09/29 14:31:20;;;;;;;2.35;1.30;;;;;;;;;;5068110;28;20044;-62
2021/09/29 14:33:49;;;;;;;1.80;1.30;;;;;;;;;;5069391;28;20056;-61
2021/09/29 14:36:16;;;;;;;1.80;1.30;;;;;;;;;;5062653;28;20034;-61
2021/09/29 14:38:46;;;;;;;1.90;1.33;;;;;;;;;;5069023;28;20032;-61
2021/09/29 14:41:12;;;;;;;1.92;1.42;;;;;;;;;;5067370;28;20044;-62
2021/09/29 14:43:37;;;;;;;2.05;1.55;;;;;;;;;;5068063;28;20040;-61
2021/09/29 14:46:02;;;;;;;1.83;1.23;;;;;;;;;;5068423;28;20389;-61
2021/09/29 14:48:28;;;;;;;1.90;1.40;;;;;;;;;;5069636;28;20028;-61
2021/09/29 14:50:53;;;;;;;1.88;1.30;;;;;;;;;;5063733;28;20105;-61
2021/09/29 14:53:20;;;;;;;2.28;1.30;;;;;;;;;;5069331;28;20016;-61
2021/09/29 14:55:45;;;;;;;2.17;1.60;;;;;;;;;;5068379;28;20028;-61
2021/09/29 14:58:11;;;;;;;2.10;1.40;;;;;;;;;;5068790;28;20503;-61
2021/09/29 15:00:36;;;;;;;1.90;1.30;;;;;;;;;;5069379;28;20040;-62
2021/09/29 15:03:02;;;;;;;1.70;1.30;;;;;;;;;;5068927;28;20067;-61
2021/09/29 15:05:28;;;;;;;1.67;1.27;;;;;;;;;;5069233;28;20709;-61
2021/09/29 15:07:53;;;;;;;1.73;1.23;;;;;;;;;;5066991;28;20358;-61
2021/09/29 15:10:19;;;;;;;1.65;1.20;;;;;;;;;;5067930;28;20036;-61
2021/09/29 15:12:44;;;;;;;1.73;1.23;;;;;;;;;;5068015;28;20112;-61
2021/09/29 15:15:19;;;;;;;2.10;1.60;;;;;;;;;;5066618;28;20032;-62
2021/09/29 15:23:13;;;;;;;2.85;1.60;;;;;;;;;;5069161;28;20136;-61
2021/09/29 15:47:44;;;;;;;1.83;1.30;;;;;;;;;;5072420;28;20016;-62
2021/09/29 15:53:09;;;;;;;1.70;1.20;;;;;;;;;;5072295;28;20334;-62
2021/09/29 15:58:18;;;;;;;1.70;1.30;;;;;;;;;;5072198;28;20028;-62
2021/09/29 16:03:40;;;;;;;1.83;1.40;;;;;;;;;;5071173;28;20025;-62
2021/09/29 16:08:34;;;;;;;1.80;1.30;;;;;;;;;;5070942;28;20041;-63
2021/09/29 16:13:42;;;;;;;1.70;1.30;;;;;;;;;;5070941;28;20031;-61
2021/09/29 16:16:15;;;;;;;1.92;1.40;;;;;;;;;;5071362;28;20036;-62
2021/09/29 16:35:03;;;;;;;2.22;1.58;;;;;;;;;;5071018;28;20059;-61
2021/09/29 16:37:29;;;;;;;1.65;1.20;;;;;;;;;;5068405;28;20465;-61
2021/09/29 16:39:56;;;;;;;1.85;1.38;;;;;;;;;;5070938;28;20115;-61
2021/09/29 16:42:21;;;;;;;1.85;1.40;;;;;;;;;;5068892;28;20021;-60
2021/09/29 16:44:47;;;;;;;1.80;1.30;;;;;;;;;;5070672;28;20592;-61
2021/09/29 16:47:12;;;;;;;2.47;1.60;;;;;;;;;;5071146;28;20044;-61
2021/09/29 16:49:40;;;;;;;1.80;1.33;;;;;;;;;;5067913;28;20094;-61
2021/09/29 16:52:13;;;;;;;2.03;1.45;;;;;;;;;;5069619;28;20115;-61
2021/09/29 16:54:39;;;;;;;1.98;1.45;;;;;;;;;;5070906;28;20025;-61
2021/09/29 16:57:11;;;;;;;1.63;1.20;;;;;;;;;;5070889;28;20033;-61
2021/09/29 16:59:55;;;;;;;4.63;1.65;;;;;;;;;;5071139;28;20024;-61
2021/09/29 17:02:20;;;;;;;1.60;1.20;;;;;;;;;;5070374;28;20141;-61
2021/09/29 17:04:46;;;;;;;1.55;1.20;;;;;;;;;;5071080;28;20454;-61
2021/09/29 17:07:13;;;;;;;1.50;1.10;;;;;;;;;;5069534;28;20032;-61
2021/09/29 17:09:38;;;;;;;1.65;1.27;;;;;;;;;;5070194;28;20028;-61
2021/09/29 17:12:04;;;;;;;1.60;1.30;;;;;;;;;;5067438;28;20029;-61
2021/09/29 17:14:30;;;;;;;1.60;1.20;;;;;;;;;;5068795;28;20079;-61
2021/09/29 17:16:55;;;;;;;2.30;1.52;;;;;;;;;;5068963;28;20435;-61
2021/09/29 17:19:20;;;;;;;1.88;1.27;;;;;;;;;;5069552;28;20420;-61
2021/09/29 17:21:46;;;;;;;1.60;1.20;;;;;;;;;;5070200;28;20017;-60
2021/09/29 17:24:12;;;;;;;1.77;1.40;;;;;;;;;;5070444;28;20032;-61
2021/09/29 17:26:37;;;;;;;1.92;1.42;;;;;;;;;;5070444;28;20028;-61
2021/09/29 17:29:03;;;;;;;1.85;1.30;;;;;;;;;;5069058;28;20076;-61
2021/09/29 17:32:06;;;;;;;1.75;1.35;;;;;;;;;;5070134;28;20043;-61
2021/09/29 17:34:39;;;;;;;1.80;1.30;;;;;;;;;;5067320;28;20040;-61
2021/09/29 17:53:07;;;;;;;1.55;1.13;;;;;;;;;;5067295;28;20067;-60
2021/09/29 17:55:34;;;;;;;1.88;1.33;;;;;;;;;;5064325;28;20100;-61
2021/09/29 17:58:00;;;;;;;2.10;1.45;;;;;;;;;;5064760;28;20032;-61
2021/09/29 18:00:28;;;;;;;1.80;1.20;;;;;;;;;;5063424;28;20071;-61
2021/09/29 18:03:03;;;;;;;1.85;1.38;;;;;;;;;;5065727;28;20533;-62
2021/09/29 18:05:42;;;;;;;1.67;1.20;;;;;;;;;;5068795;28;20028;-62
2021/09/29 18:08:08;;;;;;;1.60;1.20;;;;;;;;;;5069462;28;20374;-62
2021/09/29 18:10:36;;;;;;;1.90;1.40;;;;;;;;;;5070175;28;20414;-63
2021/09/29 18:13:02;;;;;;;1.73;1.23;;;;;;;;;;5068593;28;20056;-63
2021/09/29 18:15:30;;;;;;;2.42;1.30;;;;;;;;;;5069273;28;20036;-62
2021/09/29 18:17:56;;;;;;;1.60;1.10;;;;;;;;;;5067794;28;20088;-62
2021/09/29 18:20:21;;;;;;;1.70;1.20;;;;;;;;;;5067723;28;20040;-63
2021/09/29 18:22:48;;;;;;;2.20;1.80;;;;;;;;;;5068410;28;20032;-61
2021/09/29 18:25:14;;;;;;;1.58;1.10;;;;;;;;;;5067870;28;20040;-62
2021/09/29 18:27:40;;;;;;;2.20;1.48;;;;;;;;;;5069272;28;20448;-62
2021/09/29 18:30:07;;;;;;;1.67;1.20;;;;;;;;;;5064953;28;20051;-62
2021/09/29 18:32:34;;;;;;;1.80;1.30;;;;;;;;;;5065164;28;20557;-63
2021/09/29 18:35:00;;;;;;;1.85;1.30;;;;;;;;;;5066098;28;20115;-61
2021/09/29 18:37:26;;;;;;;2.03;1.40;;;;;;;;;;5069217;28;20024;-62
2021/09/29 18:39:55;;;;;;;1.80;1.35;;;;;;;;;;5066684;28;20378;-62
2021/09/29 18:42:21;;;;;;;2.00;1.55;;;;;;;;;;5068028;28;20048;-60
2021/09/29 18:44:48;;;;;;;1.85;1.30;;;;;;;;;;5063146;28;20209;-60
2021/09/29 18:47:15;;;;;;;2.00;1.40;;;;;;;;;;5062868;28;20155;-61
2021/09/29 18:49:42;;;;;;;1.80;1.30;;;;;;;;;;5061833;28;20106;-61
2021/09/29 18:52:12;;;;;;;1.73;1.23;;;;;;;;;;5065462;28;20025;-61
2021/09/29 19:08:19;;;;;;;2.15;1.60;;;;;;;;;;5065621;28;20036;-61
2021/09/29 19:10:45;;;;;;;1.98;1.48;;;;;;;;;;5064427;28;20060;-62
2021/09/29 19:13:10;;;;;;;1.90;1.38;;;;;;;;;;5070367;28;20420;-62
2021/09/29 19:15:36;;;;;;;2.20;1.40;;;;;;;;;;5070613;28;20111;-62
2021/09/29 19:18:03;;;;;;;2.33;1.42;;;;;;;;;;5072031;28;20032;-62
2021/09/29 19:20:29;;;;;;;3.15;1.67;;;;;;;;;;5069430;28;20048;-62